Campania, Georgia
Current Conditions -  °F | °C
As of 3:15 PM on Thursday 23 Oct 2014 (Local Time) from KHQU Reporting Station
Clear Clear  
Wind Chill: 69°   Ceiling: Unl
Heat Index: 69°   Visibility: 10mi
Dew Point: 50°   Wind: 6mph
Humidity: 50%   Direction: 310°NW
Pressure: 30.07"   Gusts: NA
Location:  33.4134°N, 82.3106°W
Report Text: KHQU 231915Z AUTO 31005KT 10SM CLR 21/10 A3007 RMK AO1 T02070098
Loading
Personal Weather Stations






























Interactive Weather Map
Tropical Storm Tracking
New forecast layout! Learn more

10-Day Weather Forecast

Advertisements
Track Severe Weather on mobile